createdAt,value
2022-09-13T00:03:29.492Z,994.32
2022-09-13T00:08:29.324Z,994.32
2022-09-13T00:13:29.318Z,994.26
2022-09-13T00:18:29.228Z,994.05
2022-09-13T00:23:29.158Z,993.91
2022-09-13T00:28:29.119Z,993.91
2022-09-13T00:33:37.898Z,993.84
2022-09-13T00:38:29.073Z,993.71
2022-09-13T00:43:29.097Z,993.74
2022-09-13T00:48:28.903Z,993.81
2022-09-13T00:53:29.801Z,993.84
2022-09-13T00:58:28.810Z,993.92
2022-09-13T01:03:28.771Z,993.78
2022-09-13T01:08:28.638Z,993.79
2022-09-13T01:13:28.580Z,993.74
2022-09-13T01:18:28.527Z,993.73
2022-09-13T01:23:28.468Z,993.72
2022-09-13T01:28:28.430Z,993.77
2022-09-13T01:33:28.403Z,993.67
2022-09-13T01:38:28.344Z,993.70
2022-09-13T01:43:28.283Z,993.65
2022-09-13T01:48:28.217Z,993.63
2022-09-13T01:53:29.168Z,993.58
2022-09-13T01:58:28.161Z,993.51
2022-09-13T02:03:28.041Z,993.60
2022-09-13T02:08:27.980Z,993.57
2022-09-13T02:13:27.948Z,993.55
2022-09-13T02:18:27.879Z,993.52
2022-09-13T02:23:27.839Z,993.53
2022-09-13T02:28:27.772Z,993.54
2022-09-13T02:33:27.797Z,993.57
2022-09-13T02:38:27.746Z,993.53
2022-09-13T02:43:27.756Z,993.55
2022-09-13T02:48:27.700Z,993.50
2022-09-13T02:53:28.663Z,993.45
2022-09-13T02:58:27.590Z,993.39
2022-09-13T03:03:27.395Z,993.48
2022-09-13T03:08:27.338Z,993.54
2022-09-13T03:13:27.314Z,993.59
2022-09-13T03:18:27.271Z,993.59
2022-09-13T03:23:27.405Z,993.63
2022-09-13T03:28:27.252Z,993.67
2022-09-13T03:33:31.672Z,993.66
2022-09-13T03:38:27.099Z,993.60
2022-09-13T03:43:27.063Z,993.58
2022-09-13T03:48:28.031Z,993.54
2022-09-13T03:53:26.929Z,993.53
2022-09-13T03:58:26.813Z,993.41
2022-09-13T04:03:26.758Z,993.32
2022-09-13T04:08:26.763Z,993.29
2022-09-13T04:13:26.711Z,993.35
2022-09-13T04:18:26.589Z,993.40
2022-09-13T04:23:26.540Z,993.39
2022-09-13T04:28:26.652Z,993.36
2022-09-13T04:33:27.542Z,993.33
2022-09-13T04:38:26.414Z,993.32
2022-09-13T04:43:26.459Z,993.36
2022-09-13T04:48:26.395Z,993.39
2022-09-13T04:53:26.241Z,993.42
2022-09-13T04:58:26.179Z,993.43
2022-09-13T05:03:26.210Z,993.51
2022-09-13T05:08:26.101Z,993.49
2022-09-13T05:13:26.008Z,993.57
2022-09-13T05:18:25.995Z,993.48
2022-09-13T05:23:25.948Z,993.45
2022-09-13T05:28:26.933Z,993.49
2022-09-13T05:33:25.809Z,993.41
2022-09-13T05:38:25.799Z,993.45
2022-09-13T05:43:26.512Z,993.38
2022-09-13T05:48:25.636Z,993.41
2022-09-13T05:53:25.603Z,993.49
2022-09-13T05:58:25.611Z,993.46
2022-09-13T06:03:25.433Z,993.59
2022-09-13T06:08:25.485Z,993.58
2022-09-13T06:13:25.369Z,993.59
2022-09-13T06:18:25.346Z,993.55
2022-09-13T06:23:25.258Z,993.58
2022-09-13T06:28:25.316Z,993.61
2022-09-13T06:33:25.211Z,993.60
2022-09-13T06:38:34.008Z,993.52
2022-09-13T06:43:25.023Z,993.57
2022-09-13T06:48:24.962Z,993.52
2022-09-13T06:53:24.966Z,993.58
2022-09-13T06:58:24.863Z,993.56
2022-09-13T07:03:24.883Z,993.54
2022-09-13T07:08:24.845Z,993.52
2022-09-13T07:13:24.777Z,993.47
2022-09-13T07:18:24.634Z,993.54
2022-09-13T07:23:24.553Z,993.50
2022-09-13T07:28:27.408Z,993.51
2022-09-13T07:33:24.459Z,993.53
2022-09-13T07:38:24.415Z,993.58
2022-09-13T07:43:33.209Z,993.57
2022-09-13T07:48:24.319Z,993.65
2022-09-13T07:53:24.295Z,993.60
2022-09-13T07:58:24.201Z,993.63
2022-09-13T08:03:24.640Z,993.70
2022-09-13T08:08:24.112Z,993.64
2022-09-13T08:13:24.107Z,993.67
2022-09-13T08:18:23.956Z,993.67
2022-09-13T08:23:23.913Z,993.79
2022-09-13T08:28:27.509Z,993.79
2022-09-13T08:33:23.828Z,993.75
2022-09-13T08:38:23.816Z,993.74
2022-09-13T08:43:23.819Z,993.67
2022-09-13T08:48:23.726Z,993.67
2022-09-13T08:53:23.827Z,993.67
2022-09-13T08:58:23.555Z,993.63
2022-09-13T09:03:23.505Z,993.64
2022-09-13T09:08:23.598Z,993.59
2022-09-13T09:13:24.646Z,993.55
2022-09-13T09:18:23.377Z,993.47
2022-09-13T09:23:23.313Z,993.47
2022-09-13T09:28:23.237Z,993.56
2022-09-13T09:33:23.304Z,993.54
2022-09-13T09:38:23.121Z,993.53
2022-09-13T09:43:23.065Z,993.44
2022-09-13T09:48:23.032Z,993.37
2022-09-13T09:53:23.099Z,993.37
2022-09-13T09:58:23.026Z,993.31
2022-09-13T10:03:23.003Z,993.28
2022-09-13T10:08:22.861Z,993.28
2022-09-13T10:13:31.023Z,993.18
2022-09-13T10:18:43.393Z,993.20
2022-09-13T10:23:24.004Z,993.16
2022-09-13T10:28:22.626Z,993.14
2022-09-13T10:33:23.606Z,993.12
2022-09-13T10:38:22.585Z,993.16
2022-09-13T10:43:22.549Z,993.21
2022-09-13T10:48:22.484Z,993.27
2022-09-13T10:53:22.363Z,993.11
2022-09-13T10:58:22.348Z,993.11
2022-09-13T11:03:22.290Z,993.19
2022-09-13T11:08:23.056Z,993.08
2022-09-13T11:13:22.150Z,992.99
2022-09-13T11:18:22.336Z,992.89
2022-09-13T11:23:22.164Z,992.79
2022-09-13T11:28:22.096Z,992.71
2022-09-13T11:33:22.058Z,992.67
2022-09-13T11:38:22.155Z,992.65
2022-09-13T11:43:21.929Z,992.56
2022-09-13T11:48:22.097Z,992.54
2022-09-13T11:53:21.785Z,992.55
2022-09-13T11:58:21.724Z,992.48
2022-09-13T12:03:21.817Z,992.30
2022-09-13T12:08:21.738Z,992.42
2022-09-13T12:13:21.654Z,992.39
2022-09-13T12:18:22.646Z,992.34
2022-09-13T12:23:21.674Z,992.23
2022-09-13T12:28:21.599Z,992.26
2022-09-13T12:33:21.413Z,992.15
2022-09-13T12:38:21.368Z,992.14
2022-09-13T12:43:21.335Z,992.14
2022-09-13T12:48:21.251Z,992.07
2022-09-13T12:53:21.398Z,992.12
2022-09-13T12:58:21.369Z,992.19
2022-09-13T13:03:21.186Z,992.16
2022-09-13T13:08:21.105Z,992.09
2022-09-13T13:13:21.042Z,992.12
2022-09-13T13:18:20.949Z,992.12
2022-09-13T13:23:20.925Z,992.16
2022-09-13T13:28:20.865Z,992.05
2022-09-13T13:33:20.939Z,992.09
2022-09-13T13:38:20.856Z,992.08
2022-09-13T13:43:20.767Z,992.00
2022-09-13T13:48:20.705Z,991.99
2022-09-13T13:53:20.698Z,991.96
2022-09-13T13:58:20.573Z,991.85
2022-09-13T14:03:20.559Z,991.79
2022-09-13T14:08:20.515Z,991.82
2022-09-13T14:13:20.452Z,991.92
2022-09-13T14:18:21.417Z,991.85
2022-09-13T14:23:20.408Z,991.88
2022-09-13T14:28:20.334Z,991.86
2022-09-13T14:33:21.258Z,991.80
2022-09-13T14:38:20.370Z,991.91
2022-09-13T14:43:20.121Z,991.88
2022-09-13T14:48:20.082Z,991.84
2022-09-13T14:53:20.066Z,991.79
2022-09-13T14:58:19.980Z,991.81
2022-09-13T15:03:20.335Z,991.85
2022-09-13T15:08:23.459Z,991.78
2022-09-13T15:13:20.859Z,991.79
2022-09-13T15:18:19.797Z,991.80
2022-09-13T15:23:19.676Z,991.80
2022-09-13T15:28:19.653Z,991.82
2022-09-13T15:33:19.612Z,991.87
2022-09-13T15:38:19.631Z,991.86
2022-09-13T15:43:19.574Z,991.80
2022-09-13T15:48:19.502Z,991.90
2022-09-13T15:53:19.981Z,991.86
2022-09-13T15:58:20.571Z,991.84
2022-09-13T16:03:19.365Z,991.86
2022-09-13T16:08:19.265Z,991.89
2022-09-13T16:13:29.120Z,991.89
2022-09-13T16:18:19.138Z,991.90
2022-09-13T16:23:19.201Z,991.88
2022-09-13T16:28:19.066Z,991.90
2022-09-13T16:33:19.075Z,991.97
2022-09-13T16:38:19.089Z,991.97
2022-09-13T16:43:18.920Z,991.96
2022-09-13T16:48:18.865Z,991.92
2022-09-13T16:53:18.835Z,991.91
2022-09-13T16:58:18.730Z,992.01
2022-09-13T17:03:18.679Z,992.05
2022-09-13T17:08:18.645Z,992.09
2022-09-13T17:13:19.573Z,992.06
2022-09-13T17:18:18.513Z,992.06
2022-09-13T17:23:18.560Z,992.08
2022-09-13T17:28:18.480Z,992.15
2022-09-13T17:33:18.347Z,992.15
2022-09-13T17:38:18.279Z,992.08
2022-09-13T17:43:18.231Z,992.12
2022-09-13T17:48:18.207Z,992.08
2022-09-13T17:53:18.089Z,992.02
2022-09-13T17:58:18.098Z,992.05
2022-09-13T18:03:18.153Z,992.14
2022-09-13T18:08:17.959Z,992.13
2022-09-13T18:13:17.924Z,992.17
2022-09-13T18:18:17.971Z,992.14
2022-09-13T18:23:19.847Z,992.14
2022-09-13T18:28:17.759Z,992.11
2022-09-13T18:33:18.841Z,992.14
2022-09-13T18:38:17.661Z,992.15
2022-09-13T18:43:17.649Z,992.16
2022-09-13T18:48:17.536Z,992.20
2022-09-13T18:53:17.556Z,992.18
2022-09-13T18:58:17.476Z,992.16
2022-09-13T19:03:17.550Z,992.14
2022-09-13T19:08:17.363Z,992.10
2022-09-13T19:13:17.246Z,992.10
2022-09-13T19:18:17.223Z,992.10
2022-09-13T19:23:17.186Z,992.09
2022-09-13T19:28:17.091Z,992.13
2022-09-13T19:33:17.044Z,992.19
2022-09-13T19:38:16.992Z,992.21
2022-09-13T19:43:17.332Z,992.21
2022-09-13T19:53:17.952Z,992.05
2022-09-13T19:58:16.816Z,992.19
2022-09-13T20:03:16.720Z,992.15
2022-09-13T20:08:16.652Z,992.14
2022-09-13T20:13:16.644Z,992.12
2022-09-13T20:18:17.681Z,991.93
2022-09-13T20:23:16.545Z,991.84
2022-09-13T20:28:16.940Z,991.80
2022-09-13T20:33:17.593Z,991.85
2022-09-13T20:38:16.550Z,991.85
2022-09-13T20:43:16.359Z,991.89
2022-09-13T20:48:16.232Z,991.90
2022-09-13T20:53:16.177Z,991.93
2022-09-13T20:58:16.217Z,991.83
2022-09-13T21:03:18.206Z,991.91
2022-09-13T21:08:16.172Z,992.01
2022-09-13T21:14:26.248Z,992.01
2022-09-13T21:19:26.221Z,992.07
2022-09-13T21:24:26.174Z,992.10
2022-09-13T21:29:26.079Z,992.10
2022-09-13T21:34:26.051Z,992.15
2022-09-13T21:39:25.978Z,992.18
2022-09-13T21:44:25.944Z,992.32
2022-09-13T21:49:25.888Z,992.24
2022-09-13T21:54:25.839Z,992.13
2022-09-13T21:59:25.761Z,992.15
2022-09-13T22:04:25.718Z,992.21
2022-09-13T22:09:25.665Z,992.03
2022-09-13T22:14:25.600Z,992.03
2022-09-13T22:19:25.538Z,992.14
2022-09-13T22:24:25.503Z,992.06
2022-09-13T22:29:25.431Z,992.01
2022-09-13T22:34:25.394Z,992.02
2022-09-13T22:39:25.333Z,992.10
2022-09-13T22:44:25.283Z,992.00
2022-09-13T22:49:25.224Z,992.05
2022-09-13T22:54:25.165Z,992.03
2022-09-13T22:59:25.114Z,992.02
2022-09-13T23:04:25.067Z,991.92
2022-09-13T23:09:24.996Z,991.91
2022-09-13T23:14:24.942Z,991.84
2022-09-13T23:19:24.907Z,991.82
2022-09-13T23:24:25.231Z,991.82
2022-09-13T23:29:24.786Z,991.59
2022-09-13T23:34:24.726Z,991.59
2022-09-13T23:39:24.716Z,991.64
2022-09-13T23:44:24.614Z,991.65
2022-09-13T23:49:24.579Z,991.56
2022-09-13T23:54:24.536Z,991.51
2022-09-13T23:59:26.286Z,991.51
